Terminal Aerodrome Forecast
Issued by NWS

Home | Current Version | Previous Version | Text Only | Print | Product List | Glossary On
Versions: 1 2 3 4 5 6 7 8 9 10 11 12 13 14
470
FTUS44 KSJT 272108 AAA
TAFSOA
TAF AMD
KSOA 272108Z 2721/2818 19008KT P6SM VCTS SCT040CB BKN060
      TEMPO 2721/2801 VRB15G25KT TSRA SCT040CB BKN060
     FM280100 VRB04KT P6SM BKN250=

USA.gov is the U.S. government's official web portal to all federal, state and local government web resources and services.